Time,TemperatureF,DewpointF,PressureIn,WindDirection,WindDirectionDegrees,WindSpeedMPH,WindSpeedGustMPH,Humidity,HourlyPrecipIn,Conditions,Clouds,dailyrainin,SoftwareType,DateUTC
2013-08-31 00:00:00,71.1,68.3,29.70,West,265,0.0,1.0,91,0.00,,,0.00,Wunderground v.1.15,2013-08-31 04:00:00,
2013-08-31 00:05:00,71.0,68.2,29.70,West,265,0.0,1.0,91,0.00,,,0.00,Wunderground v.1.15,2013-08-31 04:05:00,
2013-08-31 00:10:00,71.0,68.2,29.71,West,264,0.0,1.0,91,0.00,,,0.00,Wunderground v.1.15,2013-08-31 04:10:00,
2013-08-31 00:15:00,70.9,68.1,29.70,West,264,0.0,1.0,91,0.00,,,0.00,Wunderground v.1.15,2013-08-31 04:15:00,
2013-08-31 09:30:00,76.0,73.2,29.70,West,263,0.0,0.0,91,0.00,,,0.02,Wunderground v.1.15,2013-08-31 13:30:00,
2013-08-31 09:35:00,76.7,73.2,29.70,West,267,0.0,0.0,89,0.00,,,0.02,Wunderground v.1.15,2013-08-31 13:35:00,
2013-08-31 09:40:00,76.9,72.7,29.70,West,267,0.0,2.0,87,0.00,,,0.02,Wunderground v.1.15,2013-08-31 13:40:00,
2013-08-31 09:44:00,77.3,73.5,29.70,West,267,0.0,2.0,88,0.00,,,0.02,Wunderground v.1.15,2013-08-31 13:44:00,
2013-08-31 09:50:00,77.4,72.9,29.70,West,277,0.0,1.0,86,0.00,,,0.02,Wunderground v.1.15,2013-08-31 13:50:00,
2013-08-31 10:00:00,77.5,73.0,29.71,West,277,0.0,2.0,86,0.00,,,0.02,Wunderground v.1.15,2013-08-31 14:00:00,
2013-08-31 10:05:00,78.0,73.5,29.71,WNW,288,0.0,2.0,86,0.00,,,0.02,Wunderground v.1.15,2013-08-31 14:05:00,
2013-08-31 10:10:00,78.5,73.6,29.71,West,271,0.0,2.0,85,0.00,,,0.02,Wunderground v.1.15,2013-08-31 14:10:00,
2013-08-31 10:15:00,79.0,73.7,29.71,West,272,0.0,2.0,84,0.00,,,0.02,Wunderground v.1.15,2013-08-31 14:15:00,
2013-08-31 10:20:00,79.2,73.6,29.71,West,272,0.0,1.0,83,0.00,,,0.02,Wunderground v.1.15,2013-08-31 14:20:00,
2013-08-31 10:25:00,79.1,73.5,29.71,West,278,1.0,1.0,83,0.00,,,0.02,Wunderground v.1.15,2013-08-31 14:25:00,
2013-08-31 10:30:00,79.0,73.0,29.71,West,271,1.0,1.0,82,0.00,,,0.02,Wunderground v.1.15,2013-08-31 14:30:00,
2013-08-31 10:40:00,78.6,73.0,29.72,West,281,1.0,4.0,83,0.00,,,0.02,Wunderground v.1.15,2013-08-31 14:40:00,
2013-08-31 10:45:00,78.4,72.8,29.72,WNW,282,1.0,4.0,83,0.00,,,0.02,Wunderground v.1.15,2013-08-31 14:45:00,
2013-08-31 10:50:00,78.5,72.5,29.72,West,280,1.0,5.0,82,0.00,,,0.02,Wunderground v.1.15,2013-08-31 14:50:00,
2013-08-31 10:55:00,78.6,72.6,29.72,West,279,1.0,5.0,82,0.00,,,0.02,Wunderground v.1.15,2013-08-31 14:55:00,
2013-08-31 11:00:00,78.8,72.5,29.72,WNW,287,1.0,2.0,81,0.00,,,0.02,Wunderground v.1.15,2013-08-31 15:00:00,
2013-08-31 11:05:00,78.8,72.5,29.72,WNW,282,1.0,2.0,81,0.00,,,0.02,Wunderground v.1.15,2013-08-31 15:05:00,
2013-08-31 11:15:00,78.7,72.4,29.72,WNW,288,1.0,1.0,81,0.00,,,0.02,Wunderground v.1.15,2013-08-31 15:15:00,
2013-08-31 11:20:00,78.7,72.4,29.72,West,275,1.0,1.0,81,0.00,,,0.02,Wunderground v.1.15,2013-08-31 15:20:00,
2013-08-31 11:25:00,78.6,71.9,29.72,West,268,2.0,3.0,80,0.00,,,0.02,Wunderground v.1.15,2013-08-31 15:25:00,
2013-08-31 11:30:00,79.0,72.3,29.72,West,263,1.0,5.0,80,0.00,,,0.02,Wunderground v.1.15,2013-08-31 15:30:00,
2013-08-31 11:35:00,79.7,72.2,29.72,WNW,297,2.0,8.0,78,0.00,,,0.02,Wunderground v.1.15,2013-08-31 15:35:00,
2013-08-31 11:40:00,79.9,72.0,29.72,West,278,2.0,2.0,77,0.00,,,0.02,Wunderground v.1.15,2013-08-31 15:40:00,
2013-08-31 11:45:00,79.6,71.8,29.72,West,269,2.0,2.0,77,0.00,,,0.02,Wunderground v.1.15,2013-08-31 15:45:00,
2013-08-31 15:49:00,77.1,71.9,29.71,North,5,4.0,4.0,84,0.00,,,0.02,Wunderground v.1.15,2013-08-31 19:49:00,
2013-08-31 15:54:00,76.7,71.5,29.71,NNW,338,3.0,4.0,84,0.00,,,0.02,Wunderground v.1.15,2013-08-31 19:54:00,
2013-08-31 16:00:00,76.4,71.2,29.71,North,349,3.0,6.0,84,0.00,,,0.02,Wunderground v.1.15,2013-08-31 20:00:00,
2013-08-31 16:05:00,75.9,70.7,29.71,North,10,4.0,6.0,84,0.00,,,0.02,Wunderground v.1.15,2013-08-31 20:05:00,
2013-08-31 16:10:00,76.2,71.7,29.71,North,9,4.0,4.0,86,0.00,,,0.02,Wunderground v.1.15,2013-08-31 20:10:00,
2013-08-31 16:15:00,76.5,71.7,29.71,NNW,345,3.0,4.0,85,0.00,,,0.02,Wunderground v.1.15,2013-08-31 20:15:00,
2013-08-31 16:20:00,76.4,71.2,29.71,NNW,335,2.0,2.0,84,0.00,,,0.02,Wunderground v.1.15,2013-08-31 20:20:00,
2013-08-31 16:25:00,76.0,71.2,29.71,North,360,2.0,4.0,85,0.00,,,0.02,Wunderground v.1.15,2013-08-31 20:25:00,
2013-08-31 16:30:00,76.7,71.8,29.71,North,360,3.0,3.0,85,0.00,,,0.02,Wunderground v.1.15,2013-08-31 20:30:00,
2013-08-31 16:40:00,77.0,71.1,29.72,NNE,14,2.0,8.0,82,0.00,,,0.02,Wunderground v.1.15,2013-08-31 20:40:00,
2013-08-31 16:45:00,76.0,70.5,29.72,North,5,3.0,8.0,83,0.00,,,0.02,Wunderground v.1.15,2013-08-31 20:45:00,
2013-08-31 16:50:00,75.5,70.3,29.72,NNW,336,4.0,8.0,84,0.00,,,0.02,Wunderground v.1.15,2013-08-31 20:50:00,
2013-08-31 16:55:00,75.0,69.8,29.72,NNE,17,3.0,8.0,84,0.00,,,0.02,Wunderground v.1.15,2013-08-31 20:55:00,
2013-08-31 17:00:00,74.7,69.9,29.73,NNW,344,3.0,8.0,85,0.00,,,0.02,Wunderground v.1.15,2013-08-31 21:00:00,
2013-08-31 17:05:00,74.5,69.7,29.73,NNW,344,3.0,8.0,85,0.00,,,0.02,Wunderground v.1.15,2013-08-31 21:05:00,
2013-08-31 17:10:00,74.4,69.6,29.74,NE,40,3.0,3.0,85,0.00,,,0.02,Wunderground v.1.15,2013-08-31 21:10:00,
2013-08-31 17:20:00,74.2,69.4,29.74,North,360,2.0,8.0,85,0.00,,,0.02,Wunderground v.1.15,2013-08-31 21:20:00,
2013-08-31 17:25:00,74.1,69.3,29.74,North,355,3.0,8.0,85,0.00,,,0.02,Wunderground v.1.15,2013-08-31 21:25:00,
2013-08-31 17:30:00,73.9,69.1,29.74,NNW,347,2.0,8.0,85,0.00,,,0.02,Wunderground v.1.15,2013-08-31 21:30:00,
2013-08-31 17:35:00,73.7,69.2,29.74,North,5,2.0,8.0,86,0.00,,,0.02,Wunderground v.1.15,2013-08-31 21:35:00,
2013-08-31 17:40:00,73.8,69.3,29.75,North,355,2.0,2.0,86,0.00,,,0.02,Wunderground v.1.15,2013-08-31 21:40:00,
2013-08-31 17:45:00,73.7,69.2,29.74,North,355,1.0,8.0,86,0.00,,,0.02,Wunderground v.1.15,2013-08-31 21:45:00,
2013-08-31 17:50:00,73.7,69.2,29.74,North,349,1.0,8.0,86,0.00,,,0.02,Wunderground v.1.15,2013-08-31 21:50:00,
2013-08-31 18:00:00,73.3,69.2,29.74,NNW,344,2.0,2.0,87,0.00,,,0.02,Wunderground v.1.15,2013-08-31 22:00:00,
2013-08-31 18:05:00,73.2,69.1,29.75,NNW,344,1.0,8.0,87,0.00,,,0.02,Wunderground v.1.15,2013-08-31 22:05:00,
2013-08-31 18:10:00,73.1,69.0,29.75,NNW,345,1.0,1.0,87,0.00,,,0.02,Wunderground v.1.15,2013-08-31 22:10:00,
2013-08-31 18:15:00,73.0,68.9,29.75,NNW,343,1.0,3.0,87,0.00,,,0.02,Wunderground v.1.15,2013-08-31 22:15:00,
2013-08-31 18:20:00,72.8,68.7,29.75,NNW,344,1.0,8.0,87,0.00,,,0.02,Wunderground v.1.15,2013-08-31 22:20:00,
2013-08-31 18:25:00,72.8,68.7,29.74,NNW,344,1.0,8.0,87,0.00,,,0.02,Wunderground v.1.15,2013-08-31 22:25:00,
2013-08-31 18:30:00,72.6,68.8,29.74,North,350,1.0,8.0,88,0.00,,,0.02,Wunderground v.1.15,2013-08-31 22:30:00,
2013-08-31 18:40:00,72.4,68.6,29.75,NNW,348,1.0,8.0,88,0.00,,,0.02,Wunderground v.1.15,2013-08-31 22:40:00,
2013-08-31 18:45:00,72.3,68.5,29.75,NNW,340,1.0,8.0,88,0.00,,,0.02,Wunderground v.1.15,2013-08-31 22:45:00,
2013-08-31 18:50:00,72.2,68.4,29.75,NNW,343,1.0,1.0,88,0.00,,,0.02,Wunderground v.1.15,2013-08-31 22:50:00,
2013-08-31 18:55:00,72.0,68.2,29.74,NNW,338,1.0,8.0,88,0.00,,,0.02,Wunderground v.1.15,2013-08-31 22:55:00,
2013-08-31 19:00:00,71.8,68.1,29.75,NNW,339,1.0,8.0,88,0.00,,,0.02,Wunderground v.1.15,2013-08-31 23:00:00,
2013-08-31 19:05:00,71.7,68.3,29.74,North,5,2.0,8.0,89,0.00,,,0.02,Wunderground v.1.15,2013-08-31 23:05:00,
2013-08-31 19:10:00,71.6,68.2,29.75,North,5,1.0,8.0,89,0.00,,,0.02,Wunderground v.1.15,2013-08-31 23:10:00,
2013-08-31 19:20:00,71.4,68.0,29.75,North,5,1.0,8.0,89,0.00,,,0.02,Wunderground v.1.15,2013-08-31 23:20:00,
2013-08-31 19:25:00,71.3,67.9,29.75,North,5,1.0,8.0,89,0.00,,,0.02,Wunderground v.1.15,2013-08-31 23:25:00,
2013-08-31 19:30:00,71.3,67.9,29.75,North,360,1.0,8.0,89,0.00,,,0.02,Wunderground v.1.15,2013-08-31 23:30:00,
2013-08-31 19:35:00,71.2,67.8,29.75,North,360,0.0,8.0,89,0.00,,,0.02,Wunderground v.1.15,2013-08-31 23:35:00,
2013-08-31 19:40:00,71.1,67.7,29.75,North,360,0.0,8.0,89,0.00,,,0.02,Wunderground v.1.15,2013-08-31 23:40:00,